createdAt,value
2019-02-10T00:00:43.014Z,22.93
2019-02-10T00:03:10.545Z,19.93
2019-02-10T00:05:38.076Z,19.33
2019-02-10T00:08:05.664Z,18.67
2019-02-10T00:10:33.301Z,19.63
2019-02-10T00:13:30.490Z,19.87
2019-02-10T00:15:58.723Z,19.97
2019-02-10T00:18:26.241Z,20.33
2019-02-10T00:20:53.987Z,21.10
2019-02-10T00:23:21.692Z,19.50
2019-02-10T00:25:49.411Z,21.00
2019-02-10T00:28:17.171Z,19.33
2019-02-10T00:30:44.723Z,19.20
2019-02-10T00:33:12.235Z,20.93
2019-02-10T00:35:39.754Z,19.43
2019-02-10T00:38:07.329Z,19.83
2019-02-10T00:40:34.846Z,20.10
2019-02-10T00:43:02.332Z,18.83
2019-02-10T00:45:29.892Z,20.20
2019-02-10T00:47:57.432Z,21.60
2019-02-10T00:50:24.956Z,19.27
2019-02-10T00:52:52.458Z,20.37
2019-02-10T00:55:19.973Z,19.13
2019-02-10T00:57:47.490Z,18.87
2019-02-10T01:00:15.312Z,19.40
2019-02-10T01:02:42.868Z,19.90
2019-02-10T01:05:10.468Z,18.97
2019-02-10T01:07:37.972Z,19.60
2019-02-10T01:10:05.544Z,19.60
2019-02-10T01:12:33.083Z,19.70
2019-02-10T01:15:00.578Z,19.70
2019-02-10T01:17:28.068Z,20.27
2019-02-10T01:19:55.570Z,20.87
2019-02-10T01:22:25.312Z,19.23
2019-02-10T01:24:52.865Z,19.13
2019-02-10T01:27:20.394Z,19.50
2019-02-10T01:29:47.904Z,18.90
2019-02-10T01:32:15.404Z,19.13
2019-02-10T01:34:42.946Z,18.43
2019-02-10T01:37:10.538Z,18.60
2019-02-10T01:39:38.046Z,19.00
2019-02-10T01:42:05.592Z,18.93
2019-02-10T01:44:33.094Z,18.73
2019-02-10T01:47:00.648Z,19.13
2019-02-10T01:49:28.210Z,19.90
2019-02-10T01:51:55.710Z,19.60
2019-02-10T01:54:23.616Z,20.10
2019-02-10T01:56:51.188Z,19.90
2019-02-10T01:59:18.682Z,21.67
2019-02-10T02:01:46.186Z,20.33
2019-02-10T02:04:13.710Z,20.73
2019-02-10T02:06:41.214Z,18.27
2019-02-10T02:09:12.696Z,18.47
2019-02-10T02:11:40.358Z,19.60
2019-02-10T02:14:07.939Z,19.97
2019-02-10T02:16:35.434Z,18.53
2019-02-10T02:19:02.959Z,17.83
2019-02-10T02:21:30.457Z,19.07
2019-02-10T02:23:57.950Z,18.37
2019-02-10T02:26:25.504Z,19.43
2019-02-10T02:28:52.992Z,19.97
2019-02-10T02:31:20.478Z,17.27
2019-02-10T02:33:47.954Z,19.80
2019-02-10T02:36:15.453Z,17.67
2019-02-10T02:38:42.943Z,20.40
2019-02-10T02:41:10.526Z,18.60
2019-02-10T02:43:38.068Z,19.60
2019-02-10T02:46:05.545Z,18.63
2019-02-10T02:48:33.074Z,21.07
2019-02-10T02:51:00.971Z,19.17
2019-02-10T02:53:28.686Z,19.70
2019-02-10T02:55:56.218Z,19.97
2019-02-10T02:58:23.692Z,20.50
2019-02-10T03:00:51.228Z,19.87
2019-02-10T03:03:18.723Z,19.43
2019-02-10T03:05:46.226Z,18.20
2019-02-10T03:08:13.713Z,18.93
2019-02-10T03:10:41.756Z,19.10
2019-02-10T03:13:09.308Z,19.03
2019-02-10T03:15:37.520Z,16.50
2019-02-10T03:18:05.087Z,17.97
2019-02-10T03:20:32.595Z,17.13
2019-02-10T03:23:00.074Z,17.47
2019-02-10T03:25:27.622Z,16.87
2019-02-10T03:27:55.131Z,16.60
2019-02-10T03:30:22.707Z,16.70
2019-02-10T03:32:50.260Z,16.27
2019-02-10T03:35:17.752Z,16.47
2019-02-10T03:37:45.268Z,16.03
2019-02-10T03:40:12.945Z,15.80
2019-02-10T03:42:40.431Z,15.60
2019-02-10T03:45:08.534Z,16.00
2019-02-10T03:47:36.046Z,14.90
2019-02-10T03:50:03.959Z,14.93
2019-02-10T03:52:31.494Z,15.33
2019-02-10T03:54:58.970Z,13.23
2019-02-10T03:57:26.500Z,15.30
2019-02-10T03:59:54.042Z,13.57
2019-02-10T04:02:21.566Z,14.43
2019-02-10T04:04:49.065Z,13.90
2019-02-10T04:07:16.606Z,13.50
2019-02-10T04:09:44.106Z,13.23
2019-02-10T04:12:11.588Z,13.07
2019-02-10T04:14:39.128Z,13.07
2019-02-10T04:17:06.360Z,13.03
2019-02-10T04:19:33.868Z,12.37
2019-02-10T04:22:01.450Z,13.43
2019-02-10T04:24:28.950Z,12.90
2019-02-10T04:26:56.446Z,13.30
2019-02-10T04:29:23.978Z,12.67
2019-02-10T04:31:51.538Z,12.37
2019-02-10T04:34:19.075Z,12.47
2019-02-10T04:36:46.602Z,12.23
2019-02-10T04:39:14.152Z,11.43
2019-02-10T04:41:41.659Z,11.67
2019-02-10T04:44:09.146Z,12.43
2019-02-10T04:46:36.670Z,11.70
2019-02-10T04:49:04.156Z,11.63
2019-02-10T04:51:31.670Z,12.07
2019-02-10T04:53:59.420Z,12.60
2019-02-10T04:56:26.931Z,11.90
2019-02-10T04:58:54.413Z,11.43
2019-02-10T05:01:21.951Z,11.77
2019-02-10T05:03:49.430Z,10.00
2019-02-10T05:06:16.926Z,10.83
2019-02-10T05:08:44.450Z,10.53
2019-02-10T05:11:11.937Z,11.77
2019-02-10T05:13:39.442Z,10.47
2019-02-10T05:16:06.992Z,12.20
2019-02-10T05:18:34.554Z,10.23
2019-02-10T05:21:02.062Z,11.40
2019-02-10T05:23:29.603Z,12.20
2019-02-10T05:25:57.090Z,11.33
2019-02-10T05:28:24.594Z,9.83
2019-02-10T05:30:52.106Z,10.47
2019-02-10T05:33:19.611Z,11.10
2019-02-10T05:35:47.153Z,10.93
2019-02-10T05:38:14.660Z,10.13
2019-02-10T05:40:42.135Z,11.07
2019-02-10T05:43:09.675Z,10.80
2019-02-10T05:45:37.150Z,10.70
2019-02-10T05:48:04.651Z,10.43
2019-02-10T05:50:32.212Z,10.00
2019-02-10T05:52:59.700Z,10.73
2019-02-10T05:55:27.210Z,11.83
2019-02-10T05:57:54.713Z,10.93
2019-02-10T06:00:22.305Z,10.97
2019-02-10T06:02:49.846Z,11.40
2019-02-10T06:05:19.830Z,10.37
2019-02-10T06:07:47.438Z,11.07
2019-02-10T06:10:14.930Z,10.23
2019-02-10T06:12:43.144Z,12.17
2019-02-10T06:15:26.218Z,11.77
2019-02-10T06:17:58.582Z,12.03
2019-02-10T06:20:26.487Z,11.40
2019-02-10T06:22:54.796Z,11.30
2019-02-10T06:25:22.273Z,11.40
2019-02-10T06:27:50.240Z,10.63
2019-02-10T06:30:17.746Z,11.13
2019-02-10T06:32:45.550Z,10.80
2019-02-10T06:35:13.544Z,10.70
2019-02-10T06:37:41.916Z,10.17
2019-02-10T06:40:11.233Z,11.00
2019-02-10T06:42:38.731Z,10.63
2019-02-10T06:45:08.999Z,11.07
2019-02-10T06:47:42.475Z,11.00
2019-02-10T06:50:12.368Z,11.20
2019-02-10T06:52:40.717Z,10.80
2019-02-10T06:55:10.362Z,11.87
2019-02-10T06:57:37.847Z,11.70
2019-02-10T07:00:33.298Z,11.97
2019-02-10T07:03:38.422Z,11.97
2019-02-10T07:06:06.884Z,12.30
2019-02-10T07:08:34.430Z,12.63
2019-02-10T07:11:01.930Z,12.03
2019-02-10T07:13:35.588Z,12.30
2019-02-10T07:16:47.336Z,11.70
2019-02-10T07:19:51.388Z,11.10
2019-02-10T07:22:55.258Z,12.13
2019-02-10T07:25:44.504Z,10.87
2019-02-10T07:28:52.570Z,12.07
2019-02-10T07:31:26.092Z,11.37
2019-02-10T07:34:37.358Z,11.57
2019-02-10T07:37:15.554Z,12.30
2019-02-10T07:40:27.306Z,12.40
2019-02-10T07:43:37.180Z,11.73
2019-02-10T07:46:46.955Z,10.90
2019-02-10T07:49:52.450Z,12.30
2019-02-10T07:52:34.528Z,11.30
2019-02-10T07:55:17.340Z,10.50
2019-02-10T07:57:58.734Z,11.93
2019-02-10T08:01:09.826Z,12.77
2019-02-10T08:04:07.218Z,11.47
2019-02-10T08:07:19.637Z,12.37
2019-02-10T08:10:35.039Z,12.20
2019-02-10T08:13:44.555Z,14.60
2019-02-10T08:17:00.056Z,11.70
2019-02-10T08:20:12.354Z,11.47
2019-02-10T08:23:14.323Z,11.50
2019-02-10T08:25:57.474Z,11.90
2019-02-10T08:28:47.460Z,11.70
2019-02-10T08:31:54.370Z,12.27
2019-02-10T08:35:03.250Z,11.93
2019-02-10T08:38:08.491Z,11.23
2019-02-10T08:41:15.240Z,13.00
2019-02-10T08:44:14.429Z,12.40
2019-02-10T08:46:54.633Z,12.43
2019-02-10T08:49:51.853Z,11.10
2019-02-10T08:52:30.273Z,11.47
2019-02-10T08:54:58.989Z,12.03
2019-02-10T08:57:26.518Z,12.13
2019-02-10T08:59:54.040Z,12.53
2019-02-10T09:02:21.561Z,11.87
2019-02-10T09:04:49.089Z,11.13
2019-02-10T09:07:16.591Z,12.60
2019-02-10T09:09:44.163Z,12.03
2019-02-10T09:12:13.018Z,12.20
2019-02-10T09:14:40.537Z,14.20
2019-02-10T09:17:08.127Z,11.27
2019-02-10T09:19:35.690Z,12.80
2019-02-10T09:22:03.493Z,11.60
2019-02-10T09:24:31.058Z,12.53
2019-02-10T09:26:58.585Z,12.47
2019-02-10T09:29:26.143Z,11.87
2019-02-10T09:31:53.670Z,12.07
2019-02-10T09:34:21.221Z,10.93
2019-02-10T09:36:48.775Z,12.90
2019-02-10T09:39:16.305Z,11.97
2019-02-10T09:41:46.130Z,12.10
2019-02-10T09:44:13.717Z,14.00
2019-02-10T09:46:41.241Z,11.30
2019-02-10T09:49:08.777Z,11.57
2019-02-10T09:51:36.307Z,12.63
2019-02-10T09:54:04.039Z,12.07
2019-02-10T09:56:31.551Z,11.83
2019-02-10T09:58:59.065Z,11.93
2019-02-10T10:01:26.608Z,13.70
2019-02-10T10:03:54.129Z,11.37
2019-02-10T10:06:22.710Z,10.30
2019-02-10T10:08:50.374Z,10.50
2019-02-10T10:11:17.868Z,12.17
2019-02-10T10:13:45.469Z,10.17
2019-02-10T10:16:12.994Z,11.33
2019-02-10T10:18:41.003Z,10.67
2019-02-10T10:21:08.571Z,10.40
2019-02-10T10:23:36.431Z,9.93
2019-02-10T10:26:04.610Z,10.70
2019-02-10T10:28:32.171Z,9.90
2019-02-10T10:30:59.675Z,10.30
2019-02-10T10:33:27.265Z,9.23
2019-02-10T10:35:54.757Z,10.97
2019-02-10T10:38:22.275Z,8.87
2019-02-10T10:40:49.843Z,9.77
2019-02-10T10:43:17.420Z,10.47
2019-02-10T10:45:44.936Z,10.10
2019-02-10T10:48:12.435Z,10.07
2019-02-10T10:50:39.953Z,9.03
2019-02-10T10:53:07.695Z,8.63
2019-02-10T10:55:35.216Z,8.93
2019-02-10T10:58:02.756Z,11.27
2019-02-10T11:00:30.249Z,9.13
2019-02-10T11:02:57.787Z,9.93
2019-02-10T11:05:25.353Z,10.40
2019-02-10T11:07:52.903Z,8.60
2019-02-10T11:10:20.458Z,9.43
2019-02-10T11:12:48.027Z,8.67
2019-02-10T11:15:15.564Z,7.97
2019-02-10T11:17:43.097Z,9.50
2019-02-10T11:20:10.769Z,9.23
2019-02-10T11:22:38.990Z,11.00
2019-02-10T11:25:06.863Z,9.20
2019-02-10T11:27:34.471Z,9.97
2019-02-10T11:30:03.900Z,8.93
2019-02-10T11:32:31.363Z,9.73
2019-02-10T11:34:58.946Z,9.43
2019-02-10T11:37:27.094Z,9.40
2019-02-10T11:39:54.961Z,8.70
2019-02-10T11:42:30.221Z,9.17
2019-02-10T11:44:57.954Z,9.43
2019-02-10T11:47:25.448Z,9.80
2019-02-10T11:49:56.721Z,10.17
2019-02-10T11:52:25.029Z,9.23
2019-02-10T11:54:52.587Z,10.63
2019-02-10T11:57:20.183Z,10.30
2019-02-10T11:59:47.709Z,10.63
2019-02-10T12:02:15.270Z,9.93
2019-02-10T12:04:42.918Z,11.07
2019-02-10T12:07:10.455Z,11.47
2019-02-10T12:09:37.982Z,9.97
2019-02-10T12:12:05.677Z,10.93
2019-02-10T12:14:33.250Z,11.73
2019-02-10T12:17:01.956Z,11.40
2019-02-10T12:19:29.557Z,9.03
2019-02-10T12:21:57.127Z,9.80
2019-02-10T12:24:24.654Z,9.13
2019-02-10T12:26:52.282Z,8.07
2019-02-10T12:29:23.167Z,9.77
2019-02-10T12:31:50.723Z,10.03
2019-02-10T12:34:18.415Z,10.50
2019-02-10T12:36:45.874Z,8.97
2019-02-10T12:39:13.409Z,8.10
2019-02-10T12:41:40.979Z,9.20
2019-02-10T12:44:08.605Z,8.00
2019-02-10T12:46:39.635Z,9.50
2019-02-10T12:49:08.499Z,8.90
2019-02-10T12:51:36.037Z,8.87
2019-02-10T12:54:03.720Z,8.70
2019-02-10T12:56:31.289Z,9.40
2019-02-10T12:58:58.811Z,8.93
2019-02-10T13:01:26.398Z,8.57
2019-02-10T13:03:53.959Z,9.33
2019-02-10T13:06:21.980Z,8.03
2019-02-10T13:08:49.634Z,9.20
2019-02-10T13:11:17.202Z,8.53
2019-02-10T13:13:44.733Z,9.00
2019-02-10T13:16:12.287Z,9.07
2019-02-10T13:18:39.959Z,8.33
2019-02-10T13:21:08.466Z,9.07
2019-02-10T13:23:36.003Z,8.43
2019-02-10T13:26:03.561Z,8.33
2019-02-10T13:28:31.145Z,9.50
2019-02-10T13:30:58.753Z,7.87
2019-02-10T13:33:26.313Z,10.07
2019-02-10T13:35:53.991Z,9.70
2019-02-10T13:38:21.925Z,10.60
2019-02-10T13:40:49.539Z,10.17
2019-02-10T13:43:17.159Z,11.00
2019-02-10T13:45:45.064Z,10.17
2019-02-10T13:48:12.647Z,11.23
2019-02-10T13:50:40.300Z,11.87
2019-02-10T13:53:09.067Z,11.90
2019-02-10T13:55:36.762Z,12.47
2019-02-10T13:58:04.339Z,10.87
2019-02-10T14:00:32.006Z,12.10
2019-02-10T14:02:59.543Z,13.13
2019-02-10T14:05:27.092Z,13.47
2019-02-10T14:07:54.791Z,13.70
2019-02-10T14:10:25.629Z,12.97
2019-02-10T14:12:51.714Z,13.57
2019-02-10T14:15:19.524Z,15.20
2019-02-10T14:17:47.059Z,16.67
2019-02-10T14:20:15.053Z,13.53
2019-02-10T14:22:42.604Z,12.90
2019-02-10T14:25:10.175Z,13.80
2019-02-10T14:27:37.721Z,12.43
2019-02-10T14:30:05.955Z,15.53
2019-02-10T14:32:33.529Z,17.10
2019-02-10T14:35:01.097Z,16.33
2019-02-10T14:37:28.621Z,17.10
2019-02-10T14:39:56.197Z,14.70
2019-02-10T14:42:24.119Z,16.40
2019-02-10T14:44:51.749Z,16.57
2019-02-10T14:47:19.400Z,15.30
2019-02-10T14:49:46.957Z,16.07
2019-02-10T14:52:14.532Z,14.43
2019-02-10T14:54:42.066Z,16.60
2019-02-10T14:57:09.671Z,17.00
2019-02-10T14:59:37.165Z,15.37
2019-02-10T15:02:04.683Z,17.17
2019-02-10T15:04:32.237Z,16.43
2019-02-10T15:06:59.748Z,15.07
2019-02-10T15:09:27.340Z,15.13
2019-02-10T15:11:54.905Z,16.47
2019-02-10T15:14:22.544Z,19.97
2019-02-10T15:16:50.133Z,20.40
2019-02-10T15:19:17.657Z,16.80
2019-02-10T15:21:45.304Z,16.27
2019-02-10T15:24:20.847Z,18.47
2019-02-10T15:26:48.495Z,17.00
2019-02-10T15:29:16.052Z,14.97
2019-02-10T15:31:46.908Z,17.30
2019-02-10T15:34:15.755Z,18.10
2019-02-10T15:36:43.357Z,19.07
2019-02-10T15:39:15.159Z,16.47
2019-02-10T15:41:43.398Z,19.77
2019-02-10T15:44:11.403Z,18.33
2019-02-10T15:46:38.931Z,17.33
2019-02-10T15:49:06.428Z,17.50
2019-02-10T15:51:37.221Z,18.57
2019-02-10T15:54:03.623Z,19.10
2019-02-10T15:56:31.214Z,18.33
2019-02-10T15:58:58.844Z,18.40
2019-02-10T16:01:26.719Z,19.50
2019-02-10T16:03:54.298Z,20.10
2019-02-10T16:06:21.833Z,20.27
2019-02-10T16:08:49.354Z,20.57
2019-02-10T16:11:16.915Z,19.80
2019-02-10T16:13:44.412Z,21.13
2019-02-10T16:16:11.938Z,26.47
2019-02-10T16:18:39.474Z,21.37
2019-02-10T16:21:07.027Z,25.30
2019-02-10T16:23:34.539Z,24.63
2019-02-10T16:26:02.183Z,21.17
2019-02-10T16:28:30.089Z,22.40
2019-02-10T16:30:57.644Z,24.47
2019-02-10T16:33:25.153Z,21.63
2019-02-10T16:35:52.739Z,22.17
2019-02-10T16:38:20.233Z,22.67
2019-02-10T16:40:47.745Z,24.07
2019-02-10T16:43:15.282Z,22.80
2019-02-10T16:45:43.130Z,22.73
2019-02-10T16:48:10.733Z,22.33
2019-02-10T16:50:38.289Z,23.73
2019-02-10T16:53:05.824Z,21.63
2019-02-10T16:55:33.327Z,23.03
2019-02-10T16:58:00.870Z,23.53
2019-02-10T17:00:28.455Z,23.40
2019-02-10T17:02:55.984Z,22.60
2019-02-10T17:05:23.538Z,22.33
2019-02-10T17:07:51.064Z,22.90
2019-02-10T17:10:18.629Z,23.77
2019-02-10T17:12:46.120Z,21.83
2019-02-10T17:15:13.877Z,22.33
2019-02-10T17:17:41.510Z,23.50
2019-02-10T17:20:09.611Z,24.40
2019-02-10T17:22:37.247Z,23.93
2019-02-10T17:25:06.083Z,21.20
2019-02-10T17:27:33.634Z,26.03
2019-02-10T17:30:01.783Z,24.47
2019-02-10T17:32:29.362Z,24.30
2019-02-10T17:34:56.966Z,25.07
2019-02-10T17:37:24.609Z,23.17
2019-02-10T17:39:52.162Z,26.00
2019-02-10T17:42:19.732Z,22.43
2019-02-10T17:44:47.447Z,24.47
2019-02-10T17:47:14.966Z,20.37
2019-02-10T17:49:42.502Z,21.67
2019-02-10T17:52:10.119Z,23.17
2019-02-10T17:54:37.596Z,25.73
2019-02-10T17:57:05.241Z,21.80
2019-02-10T17:59:32.731Z,23.70
2019-02-10T18:02:00.262Z,22.37
2019-02-10T18:04:27.836Z,22.07
2019-02-10T18:06:55.407Z,24.53
2019-02-10T18:09:22.917Z,19.90
2019-02-10T18:11:50.478Z,22.97
2019-02-10T18:14:30.159Z,21.50
2019-02-10T18:17:04.123Z,20.80
2019-02-10T18:19:46.617Z,22.37
2019-02-10T18:22:36.476Z,22.37
2019-02-10T18:25:14.536Z,20.47
2019-02-10T18:28:02.879Z,22.80
2019-02-10T18:31:07.971Z,23.57
2019-02-10T18:34:00.908Z,22.90
2019-02-10T18:37:06.554Z,20.13
2019-02-10T18:39:53.605Z,23.87
2019-02-10T18:42:46.751Z,24.53
2019-02-10T18:45:40.136Z,21.47
2019-02-10T18:48:15.686Z,22.43
2019-02-10T18:51:02.775Z,23.60
2019-02-10T18:53:50.323Z,22.80
2019-02-10T18:56:29.212Z,22.23
2019-02-10T18:59:28.318Z,21.87
2019-02-10T19:02:15.980Z,22.23
2019-02-10T19:05:05.854Z,25.93
2019-02-10T19:07:54.348Z,22.47
2019-02-10T19:10:50.166Z,22.17
2019-02-10T19:13:42.958Z,22.40
2019-02-10T19:16:19.154Z,19.43
2019-02-10T19:19:06.300Z,22.73
2019-02-10T19:21:53.815Z,24.73
2019-02-10T19:24:27.458Z,23.67
2019-02-10T19:27:03.875Z,22.70
2019-02-10T19:29:46.482Z,21.83
2019-02-10T19:32:27.690Z,18.23
2019-02-10T19:35:13.172Z,22.90
2019-02-10T19:38:15.669Z,22.97
2019-02-10T19:40:55.996Z,23.97
2019-02-10T19:43:41.800Z,22.33
2019-02-10T19:46:34.881Z,20.43
2019-02-10T19:49:21.882Z,24.67
2019-02-10T19:51:57.288Z,22.30
2019-02-10T19:54:56.449Z,24.57
2019-02-10T19:57:49.134Z,20.77
2019-02-10T20:00:38.018Z,23.53
2019-02-10T20:03:25.103Z,24.23
2019-02-10T20:06:16.899Z,22.43
2019-02-10T20:09:16.102Z,24.73
2019-02-10T20:11:53.976Z,21.17
2019-02-10T20:14:40.993Z,22.67
2019-02-10T20:17:33.350Z,24.77
2019-02-10T20:20:29.244Z,22.57
2019-02-10T20:23:19.899Z,24.67
2019-02-10T20:26:13.158Z,22.43
2019-02-10T20:29:00.198Z,24.27
2019-02-10T20:31:46.378Z,24.97
2019-02-10T20:34:24.044Z,25.60
2019-02-10T20:37:09.826Z,21.63
2019-02-10T20:39:47.740Z,23.97
2019-02-10T20:42:22.714Z,25.87
2019-02-10T20:45:12.936Z,23.90
2019-02-10T20:48:02.590Z,27.53
2019-02-10T20:51:07.700Z,27.83
2019-02-10T20:53:47.666Z,27.00
2019-02-10T20:56:23.078Z,28.80
2019-02-10T20:59:12.902Z,28.87
2019-02-10T21:01:46.874Z,26.00
2019-02-10T21:04:36.188Z,25.83
2019-02-10T21:07:12.582Z,27.60
2019-02-10T21:10:11.598Z,25.67
2019-02-10T21:12:53.500Z,25.63
2019-02-10T21:15:55.960Z,26.33
2019-02-10T21:18:33.320Z,24.40
2019-02-10T21:21:19.180Z,23.93
2019-02-10T21:24:09.238Z,25.40
2019-02-10T21:26:58.976Z,25.87
2019-02-10T21:29:42.887Z,27.43
2019-02-10T21:32:32.666Z,28.10
2019-02-10T21:35:08.720Z,28.53
2019-02-10T21:37:51.162Z,27.83
2019-02-10T21:40:36.802Z,27.37
2019-02-10T21:43:09.750Z,28.53
2019-02-10T21:45:59.569Z,27.47
2019-02-10T21:48:53.435Z,23.30
2019-02-10T21:51:22.958Z,27.93
2019-02-10T21:53:50.486Z,23.83
2019-02-10T21:56:18.022Z,22.33
2019-02-10T21:58:45.606Z,24.80
2019-02-10T22:01:13.085Z,22.80
2019-02-10T22:03:45.760Z,25.70
2019-02-10T22:06:13.414Z,26.97
2019-02-10T22:08:41.162Z,26.50
2019-02-10T22:11:08.885Z,24.77
2019-02-10T22:13:36.660Z,26.17
2019-02-10T22:16:04.152Z,24.03
2019-02-10T22:18:31.678Z,24.53
2019-02-10T22:20:59.352Z,23.90
2019-02-10T22:23:26.886Z,26.37
2019-02-10T22:25:54.414Z,27.93
2019-02-10T22:28:21.938Z,26.23
2019-02-10T22:30:49.729Z,28.00
2019-02-10T22:33:17.392Z,24.23
2019-02-10T22:35:44.881Z,26.80
2019-02-10T22:38:12.393Z,26.50
2019-02-10T22:40:39.972Z,26.07
2019-02-10T22:43:07.488Z,24.60
2019-02-10T22:45:35.027Z,25.73
2019-02-10T22:48:02.852Z,25.50
2019-02-10T22:50:30.302Z,23.50
2019-02-10T22:52:57.837Z,23.20
2019-02-10T22:55:28.045Z,24.23
2019-02-10T22:57:55.866Z,25.83
2019-02-10T23:00:46.138Z,24.87
2019-02-10T23:03:14.155Z,25.57
2019-02-10T23:05:42.262Z,24.40
2019-02-10T23:08:09.738Z,24.20
2019-02-10T23:10:37.298Z,25.50
2019-02-10T23:13:04.798Z,25.77
2019-02-10T23:15:32.311Z,24.67
2019-02-10T23:18:02.039Z,23.43
2019-02-10T23:20:32.338Z,26.13
2019-02-10T23:23:00.097Z,23.47
2019-02-10T23:25:27.621Z,24.57
2019-02-10T23:27:55.524Z,24.50
2019-02-10T23:30:23.307Z,24.27
2019-02-10T23:32:50.798Z,24.23
2019-02-10T23:35:18.294Z,25.00
2019-02-10T23:37:45.830Z,23.73
2019-02-10T23:40:13.330Z,23.93
2019-02-10T23:42:40.819Z,22.87
2019-02-10T23:45:08.390Z,24.17
2019-02-10T23:47:35.872Z,25.13
2019-02-10T23:50:03.614Z,23.70
2019-02-10T23:52:31.174Z,24.57
2019-02-10T23:54:58.696Z,23.97
2019-02-10T23:57:26.190Z,23.80
2019-02-10T23:59:54.614Z,23.90
